This is the latest recevied weather packets stored in our database for station/object AD8IZ-13. If no packets are shown the sender has not sent any weather packets the latest 10 day(s).
| Time | Temp. | Humidity | Pressure | Rain* | Wind** | Luminosity | Snow |
|---|---|---|---|---|---|---|---|
| 1777607719 | 3.89° C | 94% | 1015 hPa | 0 mm | - | 0 W/m² | - |
| 1777607119 | 3.89° C | 94% | 1015 hPa | 0 mm | - | 0 W/m² | - |
| 1777606524 | 3.89° C | 94% | 1015.1 hPa | 0 mm | - | 0 W/m² | - |
| 1777605917 | 3.89° C | 93% | 1015.2 hPa | 0 mm | - | 0 W/m² | - |
| 1777605320 | 3.89° C | 93% | 1015.4 hPa | 0 mm | - | 0 W/m² | - |
| 1777604719 | 4.44° C | 92% | 1015.5 hPa | 0 mm | - | 0 W/m² | - |
| 1777604120 | 4.44° C | 91% | 1015.6 hPa | 0 mm | - | 0 W/m² | - |
| 1777603517 | 5° C | 91% | 1015.6 hPa | 0 mm | - | 0 W/m² | - |
| 1777602917 | 5° C | 90% | 1015.6 hPa | 0 mm | - | 0 W/m² | - |
| 1777602320 | 5.56° C | 90% | 1015.5 hPa | 0 mm | - | 0 W/m² | - |
| 1777601720 | 5.56° C | 89% | 1015.5 hPa | 0 mm | - | 0 W/m² | - |
| 1777601120 | 5.56° C | 88% | 1015.4 hPa | 0 mm | - | 0 W/m² | - |
| 1777600517 | 6.11° C | 86% | 1015.4 hPa | 0 mm | - | 0 W/m² | - |
| 1777599919 | 6.67° C | 83% | 1015.2 hPa | 0 mm | - | 0 W/m² | - |
| 1777599318 | 7.22° C | 81% | 1015 hPa | 0 mm | - | 0 W/m² | - |
| 1777598718 | 7.78° C | 80% | 1014.9 hPa | 0 mm | - | 0 W/m² | - |
| 1777598119 | 7.78° C | 77% | 1014.8 hPa | 0 mm | - | 0 W/m² | - |
| 1777597519 | 8.33° C | 74% | 1014.8 hPa | 0 mm | - | 0 W/m² | - |
| 1777596919 | 9.44° C | 69% | 1014.7 hPa | 0 mm | - | 0 W/m² | - |
| 1777596318 | 10° C | 67% | 1014.6 hPa | 0 mm | - | 0 W/m² | - |
| 1777595718 | 10.56° C | 62% | 1014.6 hPa | 0 mm | - | 1 W/m² | - |
| 1777595119 | 11.11° C | 60% | 1014.5 hPa | 0 mm | - | 4 W/m² | - |
| 1777594519 | 11.67° C | 58% | 1014.4 hPa | 0 mm | - | 10 W/m² | - |
| 1777593919 | 11.67° C | 56% | 1014.4 hPa | 0 mm | - | 17 W/m² | - |
| 1777593320 | 12.22° C | 55% | 1014.3 hPa | 0 mm | - | 25 W/m² | - |
* Rain latest hour (hover to see other rain measurements)
** Current wind speed in m/s (hover to see current wind gust speed)